createdAt,value
2018-12-07T00:02:23.705Z,95428.76
2018-12-07T00:05:27.063Z,95425.30
2018-12-07T00:08:30.387Z,95418.25
2018-12-07T00:11:33.728Z,95414.39
2018-12-07T00:14:37.145Z,95417.79
2018-12-07T00:17:40.451Z,95413.42
2018-12-07T00:20:43.804Z,95419.98
2018-12-07T00:23:47.105Z,95414.01
2018-12-07T00:26:50.461Z,95414.69
2018-12-07T00:29:53.773Z,95415.25
2018-12-07T00:32:58.107Z,95410.83
2018-12-07T00:36:01.508Z,95416.11
2018-12-07T00:39:07.584Z,95411.86
2018-12-07T00:42:10.973Z,95408.71
2018-12-07T00:45:14.286Z,95401.72
2018-12-07T00:48:18.841Z,95407.20
2018-12-07T00:51:22.146Z,95398.72
2018-12-07T00:54:26.531Z,95401.61
2018-12-07T00:57:29.842Z,95399.65
2018-12-07T01:00:33.242Z,95398.13
2018-12-07T01:03:36.642Z,95397.92
2018-12-07T01:06:40.025Z,95398.42
2018-12-07T01:09:43.382Z,95391.17
2018-12-07T01:12:46.807Z,95394.02
2018-12-07T01:15:50.118Z,95386.30
2018-12-07T01:18:53.537Z,95389.20
2018-12-07T01:21:56.870Z,95392.79
2018-12-07T01:25:00.243Z,95385.19
2018-12-07T01:28:03.598Z,95388.44
2018-12-07T01:31:06.937Z,95383.91
2018-12-07T01:34:10.349Z,95376.30
2018-12-07T01:37:13.646Z,95384.10
2018-12-07T01:43:35.671Z,95381.34
2018-12-07T01:46:39.032Z,95380.13
2018-12-07T01:49:42.420Z,95376.44
2018-12-07T01:52:45.726Z,95382.42
2018-12-07T01:55:49.110Z,95369.72
2018-12-07T01:58:52.427Z,95367.77
2018-12-07T02:01:55.743Z,95369.45
2018-12-07T02:04:59.052Z,95368.55
2018-12-07T02:08:02.624Z,95369.72
2018-12-07T02:11:06.057Z,95363.99
2018-12-07T02:14:09.957Z,95359.36
2018-12-07T02:17:13.427Z,95354.79
2018-12-07T02:20:17.678Z,95350.91
2018-12-07T02:23:21.058Z,95347.54
2018-12-07T02:26:24.608Z,95342.34
2018-12-07T02:29:28.488Z,95337.48
2018-12-07T02:32:32.012Z,95343.75
2018-12-07T02:35:35.577Z,95338.52
2018-12-07T02:38:38.893Z,95335.47
2018-12-07T02:41:42.257Z,95329.04
2018-12-07T02:44:45.619Z,95324.98
2018-12-07T02:47:49.758Z,95326.60
2018-12-07T02:50:53.164Z,95319.65
2018-12-07T02:53:57.376Z,95316.88
2018-12-07T02:57:00.679Z,95315.47
2018-12-07T03:00:05.306Z,95316.16
2018-12-07T03:03:08.617Z,95312.94
2018-12-07T03:06:12.024Z,95308.22
2018-12-07T03:09:15.357Z,95305.81
2018-12-07T03:12:18.694Z,95303.23
2018-12-07T03:15:22.000Z,95296.79
2018-12-07T03:18:33.166Z,95292.97
2018-12-07T03:21:36.700Z,95284.27
2018-12-07T03:24:40.001Z,95288.22
2018-12-07T03:27:43.314Z,95283.67
2018-12-07T03:30:46.718Z,95284.48
2018-12-07T03:33:50.046Z,95284.88
2018-12-07T03:36:53.360Z,95280.05
2018-12-07T03:39:56.750Z,95278.97
2018-12-07T03:43:00.142Z,95268.35
2018-12-07T03:46:03.478Z,95270.66
2018-12-07T03:49:06.814Z,95262.72
2018-12-07T03:52:10.155Z,95258.20
2018-12-07T03:55:13.782Z,95258.97
2018-12-07T03:58:17.101Z,95246.52
2018-12-07T04:01:20.398Z,95245.60
2018-12-07T04:04:24.681Z,95243.65
2018-12-07T04:07:28.087Z,95241.30
2018-12-07T04:10:31.377Z,95251.20
2018-12-07T04:13:34.807Z,95251.27
2018-12-07T04:16:38.165Z,95242.72
2018-12-07T04:19:41.483Z,95242.78
2018-12-07T04:22:45.657Z,95233.83
2018-12-07T04:25:48.942Z,95234.67
2018-12-07T04:32:31.696Z,95235.86
2018-12-07T04:35:35.023Z,95235.69
2018-12-07T04:38:39.431Z,95241.85
2018-12-07T04:41:42.814Z,95234.99
2018-12-07T04:44:46.334Z,95239.98
2018-12-07T04:47:50.412Z,95230.71
2018-12-07T04:50:53.710Z,95228.54
2018-12-07T04:53:57.625Z,95219.58
2018-12-07T04:57:01.803Z,95218.66
2018-12-07T05:00:07.800Z,95214.34
2018-12-07T05:03:11.460Z,95209.66
2018-12-07T05:06:14.880Z,95210.97
2018-12-07T05:09:18.158Z,95205.67
2018-12-07T05:12:21.485Z,95202.64
2018-12-07T05:15:24.931Z,95202.70
2018-12-07T05:18:28.214Z,95202.48
2018-12-07T05:21:31.515Z,95198.91
2018-12-07T05:24:35.509Z,95198.80
2018-12-07T05:27:38.849Z,95196.69
2018-12-07T05:30:42.224Z,95190.69
2018-12-07T05:33:45.588Z,95189.69
2018-12-07T05:36:50.186Z,95184.92
2018-12-07T05:39:53.927Z,95189.69
2018-12-07T05:42:57.945Z,95183.91
2018-12-07T05:46:01.344Z,95182.91
2018-12-07T05:49:04.747Z,95178.42
2018-12-07T05:52:08.915Z,95178.91
2018-12-07T05:55:12.224Z,95184.43
2018-12-07T05:58:15.613Z,95182.14
2018-12-07T06:01:19.027Z,95177.76
2018-12-07T06:04:22.475Z,95181.63
2018-12-07T06:07:25.807Z,95180.25
2018-12-07T06:10:29.140Z,95182.28
2018-12-07T06:13:32.418Z,95178.38
2018-12-07T06:16:35.963Z,95183.23
2018-12-07T06:19:39.262Z,95185.53
2018-12-07T06:22:42.738Z,95176.17
2018-12-07T06:25:46.026Z,95174.69
2018-12-07T06:28:49.443Z,95177.08
2018-12-07T06:31:52.778Z,95178.13
2018-12-07T06:34:56.082Z,95174.06
2018-12-07T06:37:59.426Z,95170.58
2018-12-07T06:41:02.749Z,95176.84
2018-12-07T06:44:06.150Z,95180.25
2018-12-07T06:47:09.494Z,95173.12
2018-12-07T06:50:13.094Z,95171.77
2018-12-07T06:53:16.511Z,95171.70
2018-12-07T06:56:19.850Z,95170.09
2018-12-07T06:59:23.135Z,95167.98
2018-12-07T07:02:26.675Z,95159.22
2018-12-07T07:05:30.068Z,95153.77
2018-12-07T07:08:33.358Z,95150.15
2018-12-07T07:11:36.834Z,95156.13
2018-12-07T07:14:40.122Z,95157.64
2018-12-07T07:17:43.461Z,95157.95
2018-12-07T07:20:46.754Z,95153.19
2018-12-07T07:23:50.049Z,95146.61
2018-12-07T07:26:53.352Z,95138.76
2018-12-07T07:29:57.573Z,95141.08
2018-12-07T07:33:00.895Z,95136.98
2018-12-07T07:36:04.317Z,95127.81
2018-12-07T07:39:08.764Z,95126.48
2018-12-07T07:42:12.102Z,95123.13
2018-12-07T07:45:15.402Z,95124.69
2018-12-07T07:48:18.697Z,95121.06
2018-12-07T07:51:22.035Z,95116.23
2018-12-07T07:54:25.385Z,95115.80
2018-12-07T07:57:28.923Z,95106.12
2018-12-07T08:00:33.202Z,95107.30
2018-12-07T08:03:36.538Z,95105.58
2018-12-07T08:06:39.871Z,95097.93
2018-12-07T08:09:43.190Z,95096.69
2018-12-07T08:12:46.519Z,95092.11
2018-12-07T08:15:49.923Z,95084.72
2018-12-07T08:18:53.231Z,95078.57
2018-12-07T08:21:56.538Z,95074.73
2018-12-07T08:24:59.853Z,95067.11
2018-12-07T08:28:03.164Z,95066.88
2018-12-07T08:31:06.499Z,95063.47
2018-12-07T08:34:10.471Z,95061.64
2018-12-07T08:37:13.842Z,95056.89
2018-12-07T08:40:17.149Z,95060.44
2018-12-07T08:43:20.488Z,95054.27
2018-12-07T08:46:23.787Z,95054.64
2018-12-07T08:49:32.601Z,95057.92
2018-12-07T08:52:35.983Z,95053.81
2018-12-07T08:55:40.259Z,95046.52
2018-12-07T08:58:43.633Z,95042.20
2018-12-07T09:01:46.982Z,95037.77
2018-12-07T09:04:50.353Z,95032.34
2018-12-07T09:07:53.703Z,95023.41
2018-12-07T09:10:57.015Z,95022.17
2018-12-07T09:14:00.331Z,95012.42
2018-12-07T09:17:03.702Z,95008.98
2018-12-07T09:20:07.993Z,95005.44
2018-12-07T09:23:11.470Z,94998.85
2018-12-07T09:26:14.794Z,94989.33
2018-12-07T09:29:18.134Z,94993.51
2018-12-07T09:32:21.563Z,94984.48
2018-12-07T09:35:25.033Z,94975.91
2018-12-07T09:38:28.350Z,94971.86
2018-12-07T09:41:31.650Z,94962.21
2018-12-07T09:44:34.946Z,94961.77
2018-12-07T09:47:38.312Z,94952.25
2018-12-07T09:50:41.615Z,94946.43
2018-12-07T09:53:45.002Z,94933.20
2018-12-07T09:56:48.409Z,94937.44
2018-12-07T09:59:52.055Z,94931.75
2018-12-07T10:02:55.394Z,94917.92
2018-12-07T10:05:58.789Z,94922.45
2018-12-07T10:09:02.089Z,94909.69
2018-12-07T10:12:05.444Z,94908.28
2018-12-07T10:15:08.778Z,94900.09
2018-12-07T10:18:12.364Z,94889.81
2018-12-07T10:21:15.841Z,94893.59
2018-12-07T10:24:19.181Z,94882.26
2018-12-07T10:27:22.535Z,94880.44
2018-12-07T10:30:25.839Z,94870.06
2018-12-07T10:33:29.493Z,94867.74
2018-12-07T10:36:32.789Z,94863.81
2018-12-07T10:39:36.130Z,94859.65
2018-12-07T10:42:39.745Z,94857.40
2018-12-07T10:45:43.147Z,94855.66
2018-12-07T10:48:46.505Z,94847.86
2018-12-07T10:51:49.866Z,94845.20
2018-12-07T10:54:53.685Z,94841.52
2018-12-07T10:57:57.016Z,94834.37
2018-12-07T11:01:05.754Z,94831.58
2018-12-07T11:04:14.682Z,94825.46
2018-12-07T11:11:00.158Z,94801.34
2018-12-07T11:14:09.115Z,94801.58
2018-12-07T11:17:18.137Z,94793.27
2018-12-07T11:20:27.192Z,94786.61
2018-12-07T11:23:36.091Z,94775.24
2018-12-07T11:26:44.807Z,94770.40
2018-12-07T11:33:45.195Z,94762.11
2018-12-07T11:36:48.507Z,94755.23
2018-12-07T11:39:51.827Z,94754.41
2018-12-07T11:42:55.330Z,94750.98
2018-12-07T11:45:58.926Z,94747.53
2018-12-07T11:52:13.917Z,94733.69
2018-12-07T11:55:17.354Z,94725.05
2018-12-07T11:58:20.752Z,94711.58
2018-12-07T12:01:24.170Z,94715.12
2018-12-07T12:04:27.587Z,94695.41
2018-12-07T12:07:32.732Z,94689.42
2018-12-07T12:10:36.295Z,94682.34
2018-12-07T12:13:39.693Z,94680.20
2018-12-07T12:16:43.070Z,94662.95
2018-12-07T12:19:46.600Z,94653.89
2018-12-07T12:22:49.910Z,94648.69
2018-12-07T12:25:53.290Z,94648.36
2018-12-07T12:28:56.740Z,94632.61
2018-12-07T12:32:00.159Z,94631.80
2018-12-07T12:35:05.018Z,94620.77
2018-12-07T12:38:08.347Z,94613.55
2018-12-07T12:41:11.691Z,94605.47
2018-12-07T12:44:15.123Z,94598.45
2018-12-07T12:47:18.537Z,94591.72
2018-12-07T12:50:27.354Z,94586.16
2018-12-07T12:53:30.718Z,94571.88
2018-12-07T12:56:34.117Z,94562.78
2018-12-07T12:59:37.423Z,94544.42
2018-12-07T13:02:40.772Z,94543.45
2018-12-07T13:05:44.075Z,94526.31
2018-12-07T13:08:47.437Z,94526.45
2018-12-07T13:11:50.832Z,94519.44
2018-12-07T13:14:54.166Z,94516.77
2018-12-07T13:17:57.501Z,94516.63
2018-12-07T13:21:00.818Z,94524.34
2018-12-07T13:24:04.282Z,94516.52
2018-12-07T13:27:07.596Z,94513.84
2018-12-07T13:30:11.058Z,94511.13
2018-12-07T13:33:14.372Z,94501.12
2018-12-07T13:36:18.782Z,94495.49
2018-12-07T13:39:22.480Z,94487.50
2018-12-07T13:42:26.627Z,94482.87
2018-12-07T13:45:30.119Z,94482.05
2018-12-07T13:48:33.569Z,94471.12
2018-12-07T13:51:37.197Z,94471.39
2018-12-07T13:55:01.723Z,94468.37
2018-12-07T13:58:05.490Z,94457.77
2018-12-07T14:01:09.092Z,94460.95
2018-12-07T14:04:12.468Z,94448.58
2018-12-07T14:07:15.903Z,94447.52
2018-12-07T14:10:19.386Z,94452.70
2018-12-07T14:13:22.781Z,94452.80
2018-12-07T14:16:26.242Z,94453.77
2018-12-07T14:19:29.798Z,94457.99
2018-12-07T14:22:33.721Z,94452.78
2018-12-07T14:25:37.824Z,94447.42
2018-12-07T14:28:41.375Z,94434.58
2018-12-07T14:31:44.943Z,94439.89
2018-12-07T14:34:49.634Z,94450.91
2018-12-07T14:37:53.169Z,94443.11
2018-12-07T14:40:56.885Z,94446.23
2018-12-07T14:44:00.444Z,94450.56
2018-12-07T14:47:04.206Z,94432.36
2018-12-07T14:50:08.380Z,94446.75
2018-12-07T14:53:11.968Z,94441.34
2018-12-07T14:56:15.630Z,94441.55
2018-12-07T14:59:19.394Z,94434.84
2018-12-07T15:02:22.975Z,94430.92
2018-12-07T15:05:26.624Z,94423.50
2018-12-07T15:08:30.292Z,94420.52
2018-12-07T15:11:33.865Z,94421.61
2018-12-07T15:14:37.558Z,94414.32
2018-12-07T15:17:41.293Z,94415.04
2018-12-07T15:20:44.835Z,94406.90
2018-12-07T15:23:48.204Z,94411.20
2018-12-07T15:26:51.562Z,94400.19
2018-12-07T15:29:55.241Z,94401.41
2018-12-07T15:32:58.695Z,94385.31
2018-12-07T15:36:02.267Z,94377.44
2018-12-07T15:39:07.824Z,94364.79
2018-12-07T15:42:11.353Z,94368.86
2018-12-07T15:45:14.859Z,94361.02
2018-12-07T15:48:19.591Z,94353.64
2018-12-07T15:51:23.165Z,94346.97
2018-12-07T15:54:26.748Z,94342.58
2018-12-07T15:57:30.137Z,94347.68
2018-12-07T16:00:33.627Z,94334.02
2018-12-07T16:03:37.142Z,94334.03
2018-12-07T16:06:40.646Z,94322.67
2018-12-07T16:09:44.200Z,94314.57
2018-12-07T16:12:47.561Z,94302.01
2018-12-07T16:15:51.042Z,94303.06
2018-12-07T16:18:54.531Z,94288.37
2018-12-07T16:21:57.886Z,94270.77
2018-12-07T16:25:01.284Z,94265.41
2018-12-07T16:28:04.769Z,94260.72
2018-12-07T16:31:08.560Z,94249.32
2018-12-07T16:34:12.149Z,94243.43
2018-12-07T16:37:15.772Z,94231.02
2018-12-07T16:40:19.453Z,94223.37
2018-12-07T16:43:23.075Z,94223.19
2018-12-07T16:46:26.805Z,94208.50
2018-12-07T16:49:30.131Z,94205.59
2018-12-07T16:52:33.768Z,94197.69
2018-12-07T16:55:43.272Z,94204.13
2018-12-07T16:58:46.992Z,94208.55
2018-12-07T17:01:50.329Z,94190.95
2018-12-07T17:04:53.859Z,94184.62
2018-12-07T17:07:57.517Z,94181.64
2018-12-07T17:11:01.094Z,94176.77
2018-12-07T17:14:04.613Z,94166.09
2018-12-07T17:17:08.083Z,94171.72
2018-12-07T17:20:11.611Z,94185.81
2018-12-07T17:23:15.137Z,94178.75
2018-12-07T17:26:18.790Z,94172.28
2018-12-07T17:29:22.220Z,94168.45
2018-12-07T17:32:25.976Z,94167.94
2018-12-07T17:35:30.066Z,94174.81
2018-12-07T17:38:33.659Z,94167.92
2018-12-07T17:41:37.221Z,94167.30
2018-12-07T17:44:41.000Z,94163.55
2018-12-07T17:47:44.793Z,94167.39
2018-12-07T17:50:48.256Z,94174.69
2018-12-07T17:53:51.843Z,94166.33
2018-12-07T17:56:55.336Z,94160.42
2018-12-07T17:59:59.030Z,94155.49
2018-12-07T18:03:02.428Z,94160.91
2018-12-07T18:06:05.867Z,94159.53
2018-12-07T18:09:09.692Z,94155.78
2018-12-07T18:12:13.164Z,94159.82
2018-12-07T18:15:16.695Z,94150.56
2018-12-07T18:18:20.355Z,94162.48
2018-12-07T18:21:24.065Z,94172.38
2018-12-07T18:24:27.515Z,94193.64
2018-12-07T18:27:31.045Z,94190.63
2018-12-07T18:30:34.421Z,94191.37
2018-12-07T18:33:38.101Z,94182.52
2018-12-07T18:36:41.714Z,94174.67
2018-12-07T18:39:45.149Z,94163.52
2018-12-07T18:42:48.622Z,94162.73
2018-12-07T18:45:52.063Z,94160.05
2018-12-07T18:48:55.819Z,94168.33
2018-12-07T18:51:59.313Z,94162.30
2018-12-07T18:55:02.911Z,94171.66
2018-12-07T18:58:06.523Z,94173.01
2018-12-07T19:01:10.167Z,94175.28
2018-12-07T19:04:13.685Z,94183.30
2018-12-07T19:07:17.091Z,94190.04
2018-12-07T19:10:20.551Z,94186.03
2018-12-07T19:13:24.399Z,94192.69
2018-12-07T19:16:27.846Z,94206.27
2018-12-07T19:19:31.291Z,94203.31
2018-12-07T19:22:34.970Z,94213.56
2018-12-07T19:25:38.369Z,94213.78
2018-12-07T19:31:59.098Z,94210.41
2018-12-07T19:35:02.613Z,94217.69
2018-12-07T19:38:06.022Z,94216.57
2018-12-07T19:41:09.564Z,94212.58
2018-12-07T19:44:13.190Z,94210.81
2018-12-07T19:47:16.708Z,94219.76
2018-12-07T19:50:20.495Z,94222.41
2018-12-07T19:53:24.005Z,94226.69
2018-12-07T19:56:27.375Z,94233.64
2018-12-07T19:59:30.786Z,94234.15
2018-12-07T20:02:34.500Z,94228.58
2018-12-07T20:05:38.184Z,94223.16
2018-12-07T20:08:41.552Z,94229.64
2018-12-07T20:11:45.091Z,94231.50
2018-12-07T20:14:48.611Z,94222.26
2018-12-07T20:17:51.898Z,94206.13
2018-12-07T20:20:55.239Z,94200.95
2018-12-07T20:23:58.621Z,94193.13
2018-12-07T20:27:02.274Z,94197.95
2018-12-07T20:30:07.667Z,94196.92
2018-12-07T20:33:11.431Z,94211.06
2018-12-07T20:36:14.916Z,94202.34
2018-12-07T20:39:18.474Z,94199.70
2018-12-07T20:42:29.967Z,94203.98
2018-12-07T20:45:33.428Z,94204.45
2018-12-07T20:48:36.880Z,94207.75
2018-12-07T20:51:40.265Z,94213.72
2018-12-07T20:54:43.588Z,94213.69
2018-12-07T20:57:47.064Z,94206.27
2018-12-07T21:00:59.065Z,94199.90
2018-12-07T21:07:51.361Z,94187.66
2018-12-07T21:14:22.506Z,94184.67
2018-12-07T21:17:26.132Z,94164.89
2018-12-07T21:20:30.000Z,94165.63
2018-12-07T21:23:33.648Z,94162.63
2018-12-07T21:26:37.332Z,94154.01
2018-12-07T21:29:40.826Z,94154.63
2018-12-07T21:32:44.418Z,94150.52
2018-12-07T21:35:57.906Z,94141.41
2018-12-07T21:39:01.210Z,94130.03
2018-12-07T21:42:04.570Z,94126.57
2018-12-07T21:45:07.933Z,94123.09
2018-12-07T21:48:22.201Z,94124.59
2018-12-07T21:51:31.411Z,94112.94
2018-12-07T21:54:34.984Z,94106.36
2018-12-07T21:57:38.833Z,94111.34
2018-12-07T22:00:42.398Z,94109.84
2018-12-07T22:03:45.778Z,94111.61
2018-12-07T22:06:50.334Z,94109.39
2018-12-07T22:09:53.790Z,94110.19
2018-12-07T22:12:57.254Z,94116.64
2018-12-07T22:16:00.641Z,94110.48
2018-12-07T22:19:04.191Z,94101.82
2018-12-07T22:22:07.617Z,94085.91
2018-12-07T22:25:11.229Z,94083.44
2018-12-07T22:28:14.708Z,94075.23
2018-12-07T22:31:18.344Z,94083.14
2018-12-07T22:34:21.851Z,94093.09
2018-12-07T22:37:25.850Z,94080.73
2018-12-07T22:40:29.348Z,94088.44
2018-12-07T22:43:32.852Z,94089.92
2018-12-07T22:46:36.703Z,94084.24
2018-12-07T22:49:40.212Z,94077.73
2018-12-07T22:52:43.514Z,94099.11
2018-12-07T22:55:48.226Z,94125.63
2018-12-07T22:58:51.562Z,94128.21
2018-12-07T23:01:54.992Z,94141.94
2018-12-07T23:04:58.323Z,94141.56
2018-12-07T23:08:01.655Z,94145.13
2018-12-07T23:11:05.099Z,94162.99
2018-12-07T23:14:08.437Z,94174.60
2018-12-07T23:17:11.776Z,94166.22
2018-12-07T23:20:15.230Z,94179.03
2018-12-07T23:23:18.530Z,94184.32
2018-12-07T23:26:22.091Z,94189.92
2018-12-07T23:29:25.639Z,94199.45
2018-12-07T23:32:29.026Z,94211.23
2018-12-07T23:35:33.278Z,94210.73
2018-12-07T23:38:36.606Z,94218.45
2018-12-07T23:41:39.970Z,94239.40
2018-12-07T23:44:43.278Z,94246.95
2018-12-07T23:47:46.587Z,94250.12
2018-12-07T23:50:49.938Z,94253.29
2018-12-07T23:53:53.238Z,94250.91
2018-12-07T23:56:56.640Z,94256.84
